createdAt,value
2024-01-20T00:00:17.778Z,7.34
2024-01-20T00:02:45.565Z,7.39
2024-01-20T00:05:14.116Z,7.93
2024-01-20T00:07:44.200Z,7.17
2024-01-20T00:10:13.587Z,7.35
2024-01-20T00:12:46.532Z,7.99
2024-01-20T00:15:14.565Z,7.62
2024-01-20T00:17:43.086Z,7.77
2024-01-20T00:20:11.915Z,7.88
2024-01-20T00:22:39.964Z,7.82
2024-01-20T00:25:09.964Z,6.96
2024-01-20T00:27:39.007Z,8.07
2024-01-20T00:30:09.137Z,7.73
2024-01-20T00:32:37.366Z,8.30
2024-01-20T00:35:09.548Z,8.35
2024-01-20T00:37:39.717Z,7.84
2024-01-20T00:40:09.154Z,5.94
2024-01-20T00:42:36.706Z,7.52
2024-01-20T00:45:04.452Z,7.52
2024-01-20T00:47:35.012Z,7.61
2024-01-20T00:50:06.165Z,8.43
2024-01-20T00:52:33.622Z,8.18
2024-01-20T00:55:01.049Z,8.07
2024-01-20T00:57:28.508Z,8.42
2024-01-20T00:59:57.444Z,8.38
2024-01-20T01:02:26.498Z,8.40
2024-01-20T01:04:55.418Z,6.93
2024-01-20T01:07:22.927Z,7.23
2024-01-20T01:09:50.574Z,7.56
2024-01-20T01:12:18.200Z,8.32
2024-01-20T01:14:45.670Z,7.34
2024-01-20T01:17:13.412Z,6.57
2024-01-20T01:19:40.898Z,6.58
2024-01-20T01:22:09.779Z,7.16
2024-01-20T01:24:38.733Z,7.55
2024-01-20T01:27:07.360Z,7.03
2024-01-20T01:29:34.825Z,6.73
2024-01-20T01:32:02.617Z,6.23
2024-01-20T01:34:30.071Z,7.71
2024-01-20T01:36:57.634Z,7.48
2024-01-20T01:39:26.456Z,6.69
2024-01-20T01:41:53.894Z,7.17
2024-01-20T01:44:21.351Z,6.87
2024-01-20T01:46:48.917Z,6.81
2024-01-20T01:49:16.553Z,7.29
2024-01-20T01:51:44.703Z,6.97
2024-01-20T01:54:13.732Z,8.06
2024-01-20T01:56:45.659Z,8.03
2024-01-20T01:59:13.396Z,7.98
2024-01-20T02:01:40.882Z,7.25
2024-01-20T02:04:08.717Z,7.96
2024-01-20T02:06:36.460Z,7.88
2024-01-20T02:09:05.039Z,7.97
2024-01-20T02:11:33.409Z,6.87
2024-01-20T02:14:02.792Z,7.54
2024-01-20T02:16:30.241Z,8.02
2024-01-20T02:19:03.527Z,8.18
2024-01-20T02:21:31.202Z,7.74
2024-01-20T02:24:01.500Z,7.35
2024-01-20T02:26:30.053Z,6.61
2024-01-20T02:28:57.541Z,7.51
2024-01-20T02:31:24.985Z,7.64
2024-01-20T02:33:52.636Z,7.69
2024-01-20T02:36:20.271Z,7.34
2024-01-20T02:38:47.728Z,7.14
2024-01-20T02:41:16.497Z,7.38
2024-01-20T02:43:43.952Z,7.86
2024-01-20T02:46:11.415Z,7.67
2024-01-20T02:48:38.984Z,6.83
2024-01-20T02:51:06.643Z,7.70
2024-01-20T02:53:34.069Z,7.34
2024-01-20T02:56:01.506Z,6.92
2024-01-20T02:58:30.348Z,7.40
2024-01-20T03:00:59.699Z,7.26
2024-01-20T03:03:27.246Z,7.79
2024-01-20T03:05:54.971Z,6.98
2024-01-20T03:08:22.454Z,6.95
2024-01-20T03:10:49.999Z,6.67
2024-01-20T03:13:17.579Z,6.06
2024-01-20T03:15:46.410Z,6.80
2024-01-20T03:18:14.035Z,7.90
2024-01-20T03:20:41.512Z,8.36
2024-01-20T03:23:08.981Z,7.99
2024-01-20T03:25:36.525Z,8.78
2024-01-20T03:28:04.248Z,7.84
2024-01-20T03:30:31.808Z,7.61
2024-01-20T03:33:00.763Z,7.81
2024-01-20T03:35:28.388Z,8.14
2024-01-20T03:37:55.973Z,8.23
2024-01-20T03:40:23.452Z,8.91
2024-01-20T03:42:50.893Z,8.21
2024-01-20T03:45:18.448Z,7.63
2024-01-20T03:47:45.925Z,8.25
2024-01-20T03:50:14.861Z,7.57
2024-01-20T03:52:46.278Z,7.95
2024-01-20T03:55:14.413Z,8.75
2024-01-20T03:57:42.029Z,7.41
2024-01-20T04:00:11.453Z,7.69
2024-01-20T04:02:39.123Z,8.40
2024-01-20T04:05:07.824Z,7.44
2024-01-20T04:07:36.634Z,7.79
2024-01-20T04:10:04.450Z,8.77
2024-01-20T04:12:32.089Z,9.35
2024-01-20T04:14:59.706Z,9.45
2024-01-20T04:17:27.381Z,9.56
2024-01-20T04:19:55.883Z,8.61
2024-01-20T04:22:23.815Z,8.42
2024-01-20T04:24:52.559Z,8.73
2024-01-20T04:27:20.045Z,8.15
2024-01-20T04:29:47.525Z,7.59
2024-01-20T04:32:14.988Z,8.23
2024-01-20T04:34:42.473Z,8.16
2024-01-20T04:37:09.950Z,8.21
2024-01-20T04:39:39.265Z,8.27
2024-01-20T04:42:08.485Z,7.58
2024-01-20T04:44:35.931Z,7.91
2024-01-20T04:47:03.382Z,8.49
2024-01-20T04:49:30.945Z,8.02
2024-01-20T04:52:02.918Z,6.88
2024-01-20T04:54:30.850Z,8.09
2024-01-20T04:56:58.669Z,7.91
2024-01-20T04:59:27.529Z,8.21
2024-01-20T05:01:55.054Z,8.15
2024-01-20T05:04:22.740Z,7.33
2024-01-20T05:06:50.523Z,8.64
2024-01-20T05:09:18.081Z,7.16
2024-01-20T05:11:45.553Z,8.59
2024-01-20T05:14:13.020Z,8.83
2024-01-20T05:16:41.806Z,8.86
2024-01-20T05:19:09.643Z,8.99
2024-01-20T05:21:38.727Z,9.01
2024-01-20T05:24:06.522Z,8.27
2024-01-20T05:26:34.422Z,7.55
2024-01-20T05:29:01.928Z,7.54
2024-01-20T05:31:32.730Z,7.29
2024-01-20T05:34:02.073Z,7.81
2024-01-20T05:36:29.889Z,7.96
2024-01-20T05:38:57.414Z,7.85
2024-01-20T05:41:24.981Z,8.49
2024-01-20T05:43:52.472Z,7.65
2024-01-20T05:46:21.260Z,8.26
2024-01-20T05:48:49.075Z,8.28
2024-01-20T05:51:18.098Z,8.68
2024-01-20T05:53:45.548Z,7.87
2024-01-20T05:56:13.839Z,7.66
2024-01-20T05:58:41.792Z,7.74
2024-01-20T06:01:10.972Z,9.03
2024-01-20T06:03:38.709Z,8.76
2024-01-20T06:06:07.951Z,8.81
2024-01-20T06:08:38.050Z,8.22
2024-01-20T06:11:05.799Z,8.18
2024-01-20T06:13:33.394Z,8.62
2024-01-20T06:16:00.861Z,8.54
2024-01-20T06:18:28.837Z,8.25
2024-01-20T06:20:56.364Z,7.45
2024-01-20T06:23:23.964Z,7.37
2024-01-20T06:25:53.290Z,7.21
2024-01-20T06:28:22.572Z,7.31
2024-01-20T06:30:50.905Z,8.00
2024-01-20T06:33:18.674Z,8.13
2024-01-20T06:35:46.484Z,7.69
2024-01-20T06:38:13.952Z,8.31
2024-01-20T06:40:41.404Z,7.79
2024-01-20T06:43:10.481Z,7.90
2024-01-20T06:45:38.044Z,7.59
2024-01-20T06:48:06.689Z,8.06
2024-01-20T06:50:34.411Z,8.34
2024-01-20T06:53:01.910Z,7.94
2024-01-20T06:55:29.346Z,8.29
2024-01-20T06:57:56.806Z,7.92
2024-01-20T07:00:25.651Z,7.00
2024-01-20T07:02:53.279Z,8.38
2024-01-20T07:05:20.849Z,6.90
2024-01-20T07:07:48.329Z,6.84
2024-01-20T07:10:16.492Z,6.91
2024-01-20T07:12:43.996Z,8.06
2024-01-20T07:15:12.383Z,7.53
2024-01-20T07:17:41.228Z,8.24
2024-01-20T07:20:09.556Z,7.52
2024-01-20T07:22:37.012Z,8.74
2024-01-20T07:25:04.702Z,8.67
2024-01-20T07:27:32.234Z,7.87
2024-01-20T07:29:59.774Z,8.86
2024-01-20T07:32:27.343Z,7.61
2024-01-20T07:34:56.191Z,8.54
2024-01-20T07:37:24.146Z,9.11
2024-01-20T07:39:51.713Z,8.31
2024-01-20T07:42:19.259Z,8.19
2024-01-20T07:44:46.754Z,8.72
2024-01-20T07:47:15.472Z,7.99
2024-01-20T07:49:43.231Z,7.32
2024-01-20T07:52:12.145Z,8.54
2024-01-20T07:54:39.696Z,8.06
2024-01-20T07:57:07.289Z,7.88
2024-01-20T07:59:34.804Z,8.85
2024-01-20T08:02:02.266Z,8.95
2024-01-20T08:04:29.822Z,9.63
2024-01-20T08:06:57.375Z,8.75
2024-01-20T08:09:26.354Z,8.99
2024-01-20T08:11:53.914Z,8.86
2024-01-20T08:14:21.433Z,8.34
2024-01-20T08:16:49.054Z,9.27
2024-01-20T08:19:16.596Z,8.86
2024-01-20T08:21:44.307Z,8.22
2024-01-20T08:24:11.908Z,8.50
2024-01-20T08:26:40.731Z,8.39
2024-01-20T08:29:08.263Z,9.11
2024-01-20T08:31:35.728Z,8.31
2024-01-20T08:34:03.788Z,9.09
2024-01-20T08:36:31.556Z,9.35
2024-01-20T08:38:59.194Z,9.32
2024-01-20T08:41:26.737Z,8.82
2024-01-20T08:43:55.823Z,8.77
2024-01-20T08:46:23.264Z,9.32
2024-01-20T08:48:50.777Z,9.10
2024-01-20T08:51:18.416Z,12.46
2024-01-20T08:53:45.937Z,11.85
2024-01-20T08:56:13.450Z,12.38
2024-01-20T08:58:40.973Z,11.17
2024-01-20T09:01:10.177Z,11.74
2024-01-20T09:03:37.874Z,10.23
2024-01-20T09:06:06.105Z,10.53
2024-01-20T09:08:33.606Z,13.56
2024-01-20T09:11:01.149Z,12.61
2024-01-20T09:13:28.658Z,11.30
2024-01-20T09:15:56.511Z,9.53
2024-01-20T09:18:25.967Z,9.07
2024-01-20T09:20:53.634Z,8.89
2024-01-20T09:23:21.193Z,9.48
2024-01-20T09:25:49.146Z,8.96
2024-01-20T09:28:16.719Z,9.50
2024-01-20T09:30:44.297Z,9.90
2024-01-20T09:33:12.029Z,10.31
2024-01-20T09:35:40.904Z,10.14
2024-01-20T09:38:08.443Z,9.01
2024-01-20T09:40:36.583Z,9.44
2024-01-20T09:43:05.257Z,9.85
2024-01-20T09:45:35.369Z,9.41
2024-01-20T09:48:03.095Z,9.86
2024-01-20T09:50:30.683Z,10.34
2024-01-20T09:53:04.980Z,8.97
2024-01-20T09:55:32.477Z,8.08
2024-01-20T09:58:01.825Z,9.11
2024-01-20T10:00:30.379Z,9.65
2024-01-20T10:02:58.883Z,10.44
2024-01-20T10:05:26.630Z,9.45
2024-01-20T10:07:54.060Z,9.81
2024-01-20T10:10:23.808Z,8.87
2024-01-20T10:12:52.442Z,10.02
2024-01-20T10:15:24.050Z,9.62
2024-01-20T10:17:51.640Z,9.88
2024-01-20T10:20:22.974Z,9.70
2024-01-20T10:22:51.645Z,9.50
2024-01-20T10:25:21.083Z,10.28
2024-01-20T10:27:52.108Z,10.21
2024-01-20T10:30:22.000Z,9.94
2024-01-20T10:33:03.369Z,9.92
2024-01-20T10:35:36.629Z,9.74
2024-01-20T10:38:14.488Z,9.99
2024-01-20T10:40:43.948Z,9.32
2024-01-20T10:43:15.764Z,9.57
2024-01-20T10:45:47.692Z,9.67
2024-01-20T10:48:18.335Z,10.52
2024-01-20T10:50:47.692Z,10.15
2024-01-20T10:53:15.218Z,10.40
2024-01-20T10:55:44.314Z,10.06
2024-01-20T10:58:14.679Z,10.47
2024-01-20T11:00:43.335Z,10.46
2024-01-20T11:03:11.083Z,9.92
2024-01-20T11:05:39.612Z,10.11
2024-01-20T11:08:09.092Z,10.07
2024-01-20T11:10:40.953Z,9.49
2024-01-20T11:13:09.681Z,10.35
2024-01-20T11:15:39.434Z,10.19
2024-01-20T11:18:19.910Z,10.50
2024-01-20T11:21:00.093Z,10.07
2024-01-20T11:23:28.074Z,10.26
2024-01-20T11:25:56.447Z,11.44
2024-01-20T11:28:25.417Z,10.28
2024-01-20T11:30:54.363Z,10.58
2024-01-20T11:33:22.109Z,10.57
2024-01-20T11:35:49.659Z,10.40
2024-01-20T11:38:17.683Z,10.29
2024-01-20T11:40:45.490Z,11.04
2024-01-20T11:43:13.273Z,10.65
2024-01-20T11:45:40.978Z,11.17
2024-01-20T11:48:14.004Z,11.20
2024-01-20T11:50:42.888Z,11.46
2024-01-20T11:53:10.517Z,10.11
2024-01-20T11:55:37.987Z,10.57
2024-01-20T11:58:05.488Z,9.79
2024-01-20T12:00:33.015Z,9.89
2024-01-20T12:03:01.703Z,10.54
2024-01-20T12:05:30.644Z,10.69
2024-01-20T12:07:58.245Z,10.84
2024-01-20T12:10:25.906Z,10.39
2024-01-20T12:12:53.419Z,9.99
2024-01-20T12:15:20.950Z,9.71
2024-01-20T12:17:48.560Z,10.84
2024-01-20T12:20:16.122Z,10.72
2024-01-20T12:22:44.932Z,10.55
2024-01-20T12:25:13.517Z,10.64
2024-01-20T12:27:42.955Z,10.70
2024-01-20T12:30:11.252Z,10.58
2024-01-20T12:32:38.739Z,11.27
2024-01-20T12:35:07.242Z,10.16
2024-01-20T12:37:34.679Z,11.07
2024-01-20T12:40:06.826Z,10.63
2024-01-20T12:42:34.594Z,10.09
2024-01-20T12:45:02.255Z,10.15
2024-01-20T12:47:29.866Z,11.27
2024-01-20T12:49:57.474Z,10.71
2024-01-20T12:52:25.135Z,10.68
2024-01-20T12:54:54.524Z,10.09
2024-01-20T12:57:23.950Z,10.66
2024-01-20T12:59:51.500Z,10.83
2024-01-20T13:02:18.976Z,10.27
2024-01-20T13:04:46.511Z,10.45
2024-01-20T13:07:15.107Z,10.22
2024-01-20T13:09:43.823Z,10.84
2024-01-20T13:12:11.391Z,10.73
2024-01-20T13:14:40.395Z,11.11
2024-01-20T13:17:07.941Z,10.88
2024-01-20T13:19:35.523Z,11.18
2024-01-20T13:22:03.165Z,9.45
2024-01-20T13:24:30.628Z,10.94
2024-01-20T13:26:59.032Z,11.13
2024-01-20T13:29:26.913Z,11.54
2024-01-20T13:31:55.705Z,10.58
2024-01-20T13:34:23.266Z,9.97
2024-01-20T13:36:50.743Z,10.14
2024-01-20T13:39:18.235Z,11.03
2024-01-20T13:41:46.164Z,11.12
2024-01-20T13:44:13.725Z,10.75
2024-01-20T13:46:41.173Z,11.27
2024-01-20T13:49:12.057Z,11.82
2024-01-20T13:51:41.018Z,11.12
2024-01-20T13:54:08.909Z,10.79
2024-01-20T13:56:36.441Z,10.74
2024-01-20T13:59:04.455Z,11.12
2024-01-20T14:01:31.954Z,10.25
2024-01-20T14:04:01.051Z,10.19
2024-01-20T14:06:30.156Z,10.29
2024-01-20T14:08:57.695Z,11.12
2024-01-20T14:11:25.179Z,11.01
2024-01-20T14:13:52.643Z,11.29
2024-01-20T14:16:20.162Z,11.29
2024-01-20T14:18:48.142Z,11.18
2024-01-20T14:21:15.696Z,10.05
2024-01-20T14:23:44.571Z,10.58
2024-01-20T14:26:12.023Z,10.35
2024-01-20T14:28:39.755Z,9.30
2024-01-20T14:31:08.926Z,10.75
2024-01-20T14:33:36.451Z,11.41
2024-01-20T14:36:04.093Z,11.21
2024-01-20T14:38:31.564Z,11.30
2024-01-20T14:41:00.329Z,11.39
2024-01-20T14:43:27.771Z,10.77
2024-01-20T14:45:55.229Z,10.69
2024-01-20T14:48:22.811Z,10.01
2024-01-20T14:50:50.383Z,10.74
2024-01-20T14:53:19.944Z,11.39
2024-01-20T14:55:47.411Z,11.74
2024-01-20T14:58:16.194Z,11.23
2024-01-20T15:00:44.497Z,11.27
2024-01-20T15:03:12.282Z,10.62
2024-01-20T15:05:39.878Z,10.85
2024-01-20T15:08:07.816Z,11.18
2024-01-20T15:10:35.286Z,10.09
2024-01-20T15:13:04.084Z,11.31
2024-01-20T15:15:32.912Z,10.65
2024-01-20T15:18:00.743Z,11.30
2024-01-20T15:20:28.455Z,10.37
2024-01-20T15:22:55.950Z,10.36
2024-01-20T15:25:24.121Z,10.55
2024-01-20T15:27:51.610Z,10.17
2024-01-20T15:30:19.423Z,9.89
2024-01-20T15:32:48.256Z,10.54
2024-01-20T15:35:15.761Z,10.02
2024-01-20T15:37:43.206Z,10.06
2024-01-20T15:40:11.507Z,10.49
2024-01-20T15:42:39.184Z,10.35
2024-01-20T15:45:07.360Z,10.84
2024-01-20T15:47:34.890Z,10.51
2024-01-20T15:50:04.954Z,10.14
2024-01-20T15:52:32.740Z,9.86
2024-01-20T15:55:00.445Z,10.32
2024-01-20T15:57:27.985Z,10.42
2024-01-20T15:59:55.466Z,10.93
2024-01-20T16:02:23.124Z,10.81
2024-01-20T16:04:51.108Z,9.98
2024-01-20T16:07:20.162Z,10.51
2024-01-20T16:09:47.807Z,10.68
2024-01-20T16:12:15.371Z,10.03
2024-01-20T16:14:42.857Z,10.26
2024-01-20T16:17:10.511Z,10.50
2024-01-20T16:19:38.011Z,10.66
2024-01-20T16:22:05.523Z,9.77
2024-01-20T16:24:34.362Z,10.15
2024-01-20T16:27:01.897Z,10.28
2024-01-20T16:29:29.603Z,10.13
2024-01-20T16:31:57.364Z,10.35
2024-01-20T16:34:24.974Z,9.67
2024-01-20T16:36:54.012Z,9.29
2024-01-20T16:39:21.881Z,9.89
2024-01-20T16:41:51.031Z,9.87
2024-01-20T16:44:19.454Z,9.35
2024-01-20T16:46:51.728Z,9.44
2024-01-20T16:49:20.246Z,9.80
2024-01-20T16:51:48.028Z,9.75
2024-01-20T16:54:15.671Z,10.19
2024-01-20T16:56:43.515Z,10.07
2024-01-20T16:59:12.499Z,9.79
2024-01-20T17:01:40.054Z,9.61
2024-01-20T17:04:07.818Z,10.03
2024-01-20T17:06:35.584Z,10.41
2024-01-20T17:09:04.792Z,10.34
2024-01-20T17:11:32.390Z,10.29
2024-01-20T17:14:03.859Z,9.28
2024-01-20T17:16:36.026Z,9.93
2024-01-20T17:19:05.105Z,9.57
2024-01-20T17:21:34.424Z,9.57
2024-01-20T17:24:02.029Z,9.61
2024-01-20T17:26:30.698Z,9.43
2024-01-20T17:29:02.250Z,9.05
2024-01-20T17:31:33.965Z,9.78
2024-01-20T17:34:04.710Z,9.02
2024-01-20T17:36:33.186Z,9.91
2024-01-20T17:39:01.208Z,10.20
2024-01-20T17:41:28.730Z,9.26
2024-01-20T17:43:56.242Z,10.17
2024-01-20T17:46:23.801Z,10.41
2024-01-20T17:48:51.312Z,9.96
2024-01-20T17:51:20.186Z,8.99
2024-01-20T17:53:47.650Z,8.28
2024-01-20T17:56:15.439Z,9.03
2024-01-20T17:58:42.890Z,9.23
2024-01-20T18:01:12.045Z,9.21
2024-01-20T18:03:40.446Z,10.07
2024-01-20T18:06:08.921Z,9.49
2024-01-20T18:08:37.967Z,9.37
2024-01-20T18:11:05.749Z,10.13
2024-01-20T18:13:33.502Z,9.12
2024-01-20T18:16:00.945Z,9.09
2024-01-20T18:18:28.583Z,9.21
2024-01-20T18:20:56.187Z,9.71
2024-01-20T18:23:23.812Z,9.41
2024-01-20T18:25:52.589Z,9.64
2024-01-20T18:28:20.104Z,9.62
2024-01-20T18:30:48.481Z,9.61
2024-01-20T18:33:16.111Z,8.29
2024-01-20T18:35:43.770Z,8.96
2024-01-20T18:38:11.291Z,8.62
2024-01-20T18:40:38.745Z,8.54
2024-01-20T18:43:07.910Z,8.25
2024-01-20T18:45:35.446Z,8.60
2024-01-20T18:48:03.486Z,9.32
2024-01-20T18:50:31.070Z,9.52
2024-01-20T18:52:58.496Z,9.26
2024-01-20T18:55:25.965Z,8.58
2024-01-20T18:57:53.413Z,9.31
2024-01-20T19:00:22.520Z,9.29
2024-01-20T19:02:50.519Z,8.35
2024-01-20T19:05:18.107Z,8.88
2024-01-20T19:07:45.636Z,8.59
2024-01-20T19:10:13.512Z,8.47
2024-01-20T19:12:41.704Z,8.82
2024-01-20T19:15:10.030Z,8.28
2024-01-20T19:17:39.426Z,9.00
2024-01-20T19:20:10.444Z,8.65
2024-01-20T19:22:38.139Z,8.41
2024-01-20T19:25:07.465Z,8.18
2024-01-20T19:27:34.968Z,8.37
2024-01-20T19:30:02.513Z,8.80
2024-01-20T19:32:30.059Z,8.17
2024-01-20T19:34:58.907Z,7.88
2024-01-20T19:37:26.404Z,8.71
2024-01-20T19:39:54.119Z,8.42
2024-01-20T19:42:21.832Z,8.92
2024-01-20T19:44:49.320Z,9.16
2024-01-20T19:47:16.829Z,8.98
2024-01-20T19:49:44.597Z,9.08
2024-01-20T19:52:15.157Z,8.32
2024-01-20T19:54:42.713Z,9.01
2024-01-20T19:57:10.361Z,8.91
2024-01-20T19:59:38.242Z,8.46
2024-01-20T20:02:06.158Z,7.95
2024-01-20T20:04:33.748Z,7.82
2024-01-20T20:07:05.405Z,8.06
2024-01-20T20:09:34.421Z,7.61
2024-01-20T20:12:01.952Z,8.37
2024-01-20T20:14:29.408Z,8.94
2024-01-20T20:16:56.883Z,8.38
2024-01-20T20:19:24.462Z,8.98
2024-01-20T20:21:53.693Z,9.12
2024-01-20T20:24:21.322Z,8.85
2024-01-20T20:26:56.954Z,8.86
2024-01-20T20:29:25.276Z,8.78
2024-01-20T20:31:52.919Z,7.64
2024-01-20T20:34:20.896Z,7.45
2024-01-20T20:36:48.594Z,7.83
2024-01-20T20:39:16.480Z,8.37
2024-01-20T20:41:44.629Z,8.63
2024-01-20T20:44:14.336Z,8.45
2024-01-20T20:46:42.104Z,8.16
2024-01-20T20:49:09.821Z,8.11
2024-01-20T20:51:37.528Z,8.50
2024-01-20T20:54:05.274Z,7.30
2024-01-20T20:56:32.813Z,8.39
2024-01-20T20:59:00.562Z,7.12
2024-01-20T21:01:29.496Z,7.54
2024-01-20T21:03:57.640Z,7.92
2024-01-20T21:06:25.796Z,8.18
2024-01-20T21:08:54.803Z,8.29
2024-01-20T21:11:22.692Z,8.20
2024-01-20T21:13:50.170Z,8.07
2024-01-20T21:16:18.382Z,7.92
2024-01-20T21:18:47.335Z,7.87
2024-01-20T21:21:15.246Z,8.21
2024-01-20T21:23:42.725Z,8.21
2024-01-20T21:26:10.689Z,8.14
2024-01-20T21:28:38.368Z,8.17
2024-01-20T21:31:08.081Z,8.03
2024-01-20T21:33:35.749Z,7.95
2024-01-20T21:36:05.189Z,8.08
2024-01-20T21:38:32.653Z,7.88
2024-01-20T21:41:00.318Z,7.86
2024-01-20T21:43:27.785Z,8.04
2024-01-20T21:45:55.416Z,7.97
2024-01-20T21:48:22.947Z,7.97
2024-01-20T21:50:50.605Z,7.76
2024-01-20T21:53:19.594Z,7.66
2024-01-20T21:55:47.374Z,7.81
2024-01-20T21:58:14.960Z,7.95
2024-01-20T22:00:43.786Z,7.53
2024-01-20T22:03:11.568Z,7.82
2024-01-20T22:05:39.612Z,7.43
2024-01-20T22:08:07.776Z,7.83
2024-01-20T22:10:36.668Z,7.74
2024-01-20T22:13:04.409Z,7.84
2024-01-20T22:15:31.989Z,7.83
2024-01-20T22:17:59.681Z,7.48
2024-01-20T22:20:27.292Z,7.57
2024-01-20T22:22:54.789Z,7.72
2024-01-20T22:25:22.259Z,7.56
2024-01-20T22:27:51.137Z,7.62
2024-01-20T22:30:18.842Z,7.58
2024-01-20T22:32:47.122Z,7.54
2024-01-20T22:35:14.608Z,7.43
2024-01-20T22:37:42.083Z,7.27
2024-01-20T22:40:11.207Z,7.71
2024-01-20T22:42:38.760Z,7.59
2024-01-20T22:45:11.083Z,7.54
2024-01-20T22:47:40.329Z,7.31
2024-01-20T22:50:08.394Z,7.55
2024-01-20T22:52:35.941Z,7.48
2024-01-20T22:55:03.663Z,7.48
2024-01-20T22:57:31.373Z,7.29
2024-01-20T22:59:58.885Z,7.53
2024-01-20T23:02:27.700Z,7.23
2024-01-20T23:04:56.033Z,7.55
2024-01-20T23:07:23.941Z,7.40
2024-01-20T23:09:51.523Z,6.75
2024-01-20T23:12:20.720Z,6.84
2024-01-20T23:14:48.564Z,7.21
2024-01-20T23:17:17.451Z,7.31
2024-01-20T23:19:46.259Z,7.47
2024-01-20T23:22:13.739Z,7.31
2024-01-20T23:24:43.210Z,7.14
2024-01-20T23:27:10.916Z,7.21
2024-01-20T23:29:38.430Z,7.18
2024-01-20T23:32:06.109Z,7.45
2024-01-20T23:34:34.168Z,7.46
2024-01-20T23:37:02.936Z,7.45
2024-01-20T23:39:30.470Z,7.26
2024-01-20T23:41:58.078Z,7.34
2024-01-20T23:44:25.661Z,7.27
2024-01-20T23:46:55.446Z,7.15
2024-01-20T23:49:22.985Z,7.08
2024-01-20T23:51:50.639Z,7.11
2024-01-20T23:54:19.887Z,7.01
2024-01-20T23:56:47.833Z,7.09
2024-01-20T23:59:15.444Z,6.85
